createdAt,value
2022-11-29T00:02:15.574Z,88.30
2022-11-29T00:04:42.377Z,88.70
2022-11-29T00:07:08.949Z,88.27
2022-11-29T00:09:35.322Z,88.65
2022-11-29T00:12:13.673Z,88.72
2022-11-29T00:14:40.684Z,88.42
2022-11-29T00:17:07.467Z,88.44
2022-11-29T00:19:34.358Z,88.09
2022-11-29T00:22:01.230Z,88.17
2022-11-29T00:24:27.763Z,88.35
2022-11-29T00:26:54.197Z,88.64
2022-11-29T00:29:20.559Z,88.66
2022-11-29T00:31:46.928Z,88.27
2022-11-29T00:34:13.520Z,88.57
2022-11-29T00:36:40.065Z,88.62
2022-11-29T00:39:06.470Z,88.87
2022-11-29T00:41:33.175Z,88.90
2022-11-29T00:43:59.546Z,88.94
2022-11-29T00:46:26.097Z,89.34
2022-11-29T00:48:52.594Z,89.29
2022-11-29T00:51:18.980Z,89.33
2022-11-29T00:53:45.398Z,89.24
2022-11-29T00:56:11.841Z,89.46
2022-11-29T00:58:38.388Z,89.19
2022-11-29T01:01:05.535Z,89.61
2022-11-29T01:03:32.121Z,89.64
2022-11-29T01:06:06.522Z,89.35
2022-11-29T01:08:32.962Z,89.18
2022-11-29T01:11:10.941Z,89.55
2022-11-29T01:13:37.471Z,89.55
2022-11-29T01:16:04.793Z,89.52
2022-11-29T01:18:31.484Z,89.25
2022-11-29T01:21:08.778Z,89.52
2022-11-29T01:23:36.243Z,89.24
2022-11-29T01:26:07.347Z,89.10
2022-11-29T01:28:34.176Z,89.54
2022-11-29T01:31:05.006Z,89.82
2022-11-29T01:33:31.446Z,89.58
2022-11-29T01:35:57.865Z,89.90
2022-11-29T01:38:24.282Z,90.02
2022-11-29T01:41:01.385Z,89.58
2022-11-29T01:43:28.140Z,90.72
2022-11-29T01:45:54.553Z,90.34
2022-11-29T01:48:26.169Z,92.94
2022-11-29T01:50:53.709Z,93.64
2022-11-29T01:53:20.747Z,93.78
2022-11-29T01:55:50.808Z,94.29
2022-11-29T01:58:17.829Z,94.37
2022-11-29T02:00:44.488Z,94.96
2022-11-29T02:03:15.452Z,93.98
2022-11-29T02:05:43.128Z,94.30
2022-11-29T02:08:11.077Z,92.97
2022-11-29T02:10:45.439Z,91.92
2022-11-29T02:13:23.264Z,91.86
2022-11-29T02:15:58.739Z,91.46
2022-11-29T02:18:36.189Z,91.04
2022-11-29T02:21:05.718Z,91.21
2022-11-29T02:23:35.066Z,91.20
2022-11-29T02:26:20.209Z,91.39
2022-11-29T02:28:46.586Z,91.95
2022-11-29T02:31:31.507Z,91.32
2022-11-29T02:34:07.927Z,91.48
2022-11-29T02:36:34.378Z,91.07
2022-11-29T02:39:19.185Z,91.13
2022-11-29T02:41:57.758Z,90.79
2022-11-29T02:44:27.164Z,90.96
2022-11-29T02:47:12.386Z,91.00
2022-11-29T02:49:41.772Z,90.71
2022-11-29T02:52:13.205Z,90.82
2022-11-29T02:54:47.773Z,90.91
2022-11-29T02:57:32.960Z,90.46
2022-11-29T03:00:03.239Z,90.43
2022-11-29T03:02:29.663Z,90.18
2022-11-29T03:05:15.138Z,90.16
2022-11-29T03:07:50.567Z,89.70
2022-11-29T03:10:16.984Z,89.61
2022-11-29T03:12:51.643Z,90.03
2022-11-29T03:15:18.067Z,89.63
2022-11-29T03:17:44.419Z,89.25
2022-11-29T03:20:20.294Z,89.73
2022-11-29T03:22:46.649Z,89.63
2022-11-29T03:25:17.459Z,89.50
2022-11-29T03:27:47.578Z,89.64
2022-11-29T03:30:16.972Z,89.18
2022-11-29T03:32:52.179Z,88.96
2022-11-29T03:35:35.197Z,89.31
2022-11-29T03:38:01.584Z,88.98
2022-11-29T03:40:31.151Z,89.20
2022-11-29T03:43:06.708Z,89.50
2022-11-29T03:45:44.544Z,88.77
2022-11-29T03:48:40.046Z,88.89
2022-11-29T03:51:29.321Z,88.43
2022-11-29T03:54:03.524Z,88.64
2022-11-29T03:56:31.157Z,89.00
2022-11-29T03:59:04.105Z,88.60
2022-11-29T04:01:45.589Z,88.80
2022-11-29T04:04:20.977Z,88.75
2022-11-29T04:07:01.455Z,88.60
2022-11-29T04:09:46.178Z,88.36
2022-11-29T04:12:22.295Z,88.46
2022-11-29T04:15:11.591Z,87.97
2022-11-29T04:18:00.714Z,88.42
2022-11-29T04:20:43.017Z,88.56
2022-11-29T04:23:30.132Z,88.52
2022-11-29T04:26:15.295Z,87.94
2022-11-29T04:29:01.506Z,88.13
2022-11-29T04:31:38.266Z,87.97
2022-11-29T04:34:23.253Z,88.08
2022-11-29T04:37:03.848Z,87.84
2022-11-29T04:39:43.516Z,88.02
2022-11-29T04:42:25.168Z,87.97
2022-11-29T04:44:57.616Z,88.07
2022-11-29T04:47:42.507Z,88.81
2022-11-29T04:50:21.182Z,88.61
2022-11-29T04:53:06.443Z,88.24
2022-11-29T04:55:56.530Z,88.68
2022-11-29T04:58:36.622Z,87.88
2022-11-29T05:01:18.363Z,88.26
2022-11-29T05:03:57.262Z,87.91
2022-11-29T05:06:35.514Z,88.62
2022-11-29T05:09:19.013Z,88.77
2022-11-29T05:11:55.289Z,89.16
2022-11-29T05:14:37.900Z,88.32
2022-11-29T05:17:19.604Z,88.70
2022-11-29T05:19:46.696Z,88.24
2022-11-29T05:22:28.244Z,87.72
2022-11-29T05:25:00.731Z,87.90
2022-11-29T05:27:30.190Z,87.81
2022-11-29T05:30:04.174Z,87.77
2022-11-29T05:32:36.116Z,87.85
2022-11-29T05:35:02.452Z,87.91
2022-11-29T05:37:34.927Z,88.25
2022-11-29T05:40:07.682Z,88.28
2022-11-29T05:42:34.138Z,87.94
2022-11-29T05:45:19.356Z,87.50
2022-11-29T05:48:18.465Z,87.48
2022-11-29T05:50:48.059Z,87.63
2022-11-29T05:53:17.484Z,87.59
2022-11-29T05:55:46.917Z,87.45
2022-11-29T05:58:48.929Z,87.33
2022-11-29T06:01:23.514Z,87.63
2022-11-29T06:03:58.293Z,87.79
2022-11-29T06:06:31.307Z,87.24
2022-11-29T06:08:57.937Z,86.99
2022-11-29T06:11:27.919Z,86.85
2022-11-29T06:14:02.499Z,86.76
2022-11-29T06:16:34.780Z,87.34
2022-11-29T06:19:34.106Z,87.29
2022-11-29T06:22:21.339Z,86.79
2022-11-29T06:24:56.709Z,87.02
2022-11-29T06:27:31.752Z,86.77
2022-11-29T06:30:03.777Z,86.70
2022-11-29T06:32:37.450Z,86.65
2022-11-29T06:35:18.465Z,86.78
2022-11-29T06:37:55.757Z,87.05
2022-11-29T06:40:22.300Z,86.75
2022-11-29T06:42:49.011Z,87.21
2022-11-29T06:45:15.987Z,86.93
2022-11-29T06:47:42.349Z,86.95
2022-11-29T06:50:08.901Z,86.74
2022-11-29T06:52:44.550Z,86.98
2022-11-29T06:55:10.895Z,86.98
2022-11-29T06:57:40.304Z,86.82
2022-11-29T07:00:12.788Z,87.32
2022-11-29T07:02:41.978Z,87.41
2022-11-29T07:05:08.325Z,87.27
2022-11-29T07:07:35.388Z,87.13
2022-11-29T07:10:02.827Z,87.03
2022-11-29T07:12:29.354Z,87.23
2022-11-29T07:14:55.959Z,87.09
2022-11-29T07:17:28.346Z,87.45
2022-11-29T07:19:57.476Z,87.61
2022-11-29T07:22:39.155Z,87.27
2022-11-29T07:25:16.679Z,86.53
2022-11-29T07:28:01.684Z,86.56
2022-11-29T07:30:34.681Z,86.71
2022-11-29T07:33:19.958Z,86.90
2022-11-29T07:35:53.614Z,87.25
2022-11-29T07:38:47.307Z,87.46
2022-11-29T07:41:16.661Z,87.58
2022-11-29T07:43:49.385Z,87.60
2022-11-29T07:46:15.879Z,87.78
2022-11-29T07:48:42.311Z,87.93
2022-11-29T07:51:09.385Z,88.06
2022-11-29T07:53:40.144Z,87.94
2022-11-29T07:56:06.672Z,87.86
2022-11-29T07:58:33.339Z,88.08
2022-11-29T08:00:59.755Z,88.38
2022-11-29T08:03:26.158Z,88.64
2022-11-29T08:05:52.574Z,88.68
2022-11-29T08:08:18.966Z,88.89
2022-11-29T08:10:45.400Z,88.65
2022-11-29T08:13:12.170Z,88.94
2022-11-29T08:15:43.260Z,88.74
2022-11-29T08:18:09.705Z,89.08
2022-11-29T08:20:36.068Z,88.99
2022-11-29T08:23:03.476Z,89.68
2022-11-29T08:25:29.858Z,89.37
2022-11-29T08:27:56.389Z,89.49
2022-11-29T08:30:23.194Z,89.61
2022-11-29T08:32:51.559Z,89.94
2022-11-29T08:35:19.091Z,89.91
2022-11-29T08:37:45.513Z,89.83
2022-11-29T08:40:12.317Z,89.57
2022-11-29T08:42:38.735Z,90.18
2022-11-29T08:45:06.361Z,90.16
2022-11-29T08:47:35.858Z,90.41
2022-11-29T08:50:12.275Z,90.77
2022-11-29T08:52:58.619Z,90.40
2022-11-29T08:55:26.569Z,90.92
2022-11-29T08:57:53.558Z,91.20
2022-11-29T09:00:21.337Z,91.31
2022-11-29T09:02:48.428Z,91.26
2022-11-29T09:05:15.916Z,91.56
2022-11-29T09:07:42.915Z,91.95
2022-11-29T09:10:12.167Z,91.93
2022-11-29T09:12:39.094Z,92.21
2022-11-29T09:15:06.323Z,92.00
2022-11-29T09:17:33.007Z,92.36
2022-11-29T09:19:59.452Z,91.88
2022-11-29T09:22:25.891Z,92.07
2022-11-29T09:24:52.342Z,92.54
2022-11-29T09:27:18.846Z,92.30
2022-11-29T09:29:45.281Z,92.49
2022-11-29T09:32:11.655Z,92.60
2022-11-29T09:34:38.067Z,92.96
2022-11-29T09:37:05.184Z,93.09
2022-11-29T09:39:31.634Z,93.51
2022-11-29T09:42:17.095Z,93.72
2022-11-29T09:44:43.661Z,94.16
2022-11-29T09:47:39.189Z,93.81
2022-11-29T09:50:14.409Z,94.35
2022-11-29T09:53:07.149Z,94.58
2022-11-29T09:55:52.378Z,94.11
2022-11-29T09:58:21.677Z,94.33
2022-11-29T10:00:52.933Z,94.58
2022-11-29T10:03:25.554Z,94.35
2022-11-29T10:05:57.921Z,94.56
2022-11-29T10:08:41.208Z,94.80
2022-11-29T10:11:13.503Z,95.41
2022-11-29T10:13:45.014Z,95.35
2022-11-29T10:16:19.623Z,95.48
2022-11-29T10:18:46.185Z,95.86
2022-11-29T10:21:14.468Z,95.75
2022-11-29T10:23:47.414Z,95.28
2022-11-29T10:26:14.034Z,95.84
2022-11-29T10:28:48.592Z,96.62
2022-11-29T10:31:25.317Z,96.74
2022-11-29T10:33:51.793Z,96.53
2022-11-29T10:36:24.459Z,96.63
2022-11-29T10:38:52.193Z,96.98
2022-11-29T10:41:22.248Z,97.35
2022-11-29T10:43:50.308Z,97.25
2022-11-29T10:46:30.907Z,97.33
2022-11-29T10:49:02.830Z,97.03
2022-11-29T10:51:29.478Z,97.27
2022-11-29T10:53:56.172Z,97.18
2022-11-29T10:56:29.328Z,97.73
2022-11-29T10:59:06.134Z,97.53
2022-11-29T11:01:33.938Z,97.42
2022-11-29T11:04:03.243Z,97.84
2022-11-29T11:06:44.550Z,98.22
2022-11-29T11:09:30.113Z,98.47
2022-11-29T11:11:58.709Z,98.70
2022-11-29T11:14:30.250Z,98.78
2022-11-29T11:16:56.933Z,98.75
2022-11-29T11:19:30.604Z,99.29
2022-11-29T11:21:58.881Z,99.07
2022-11-29T11:24:29.804Z,99.27
2022-11-29T11:26:56.614Z,99.25
2022-11-29T11:29:27.092Z,99.08
2022-11-29T11:31:56.217Z,99.24
2022-11-29T11:34:28.568Z,99.07
2022-11-29T11:37:15.197Z,99.14
2022-11-29T11:39:42.615Z,99.16
2022-11-29T11:42:32.509Z,98.58
2022-11-29T11:44:59.388Z,99.25
2022-11-29T11:47:27.403Z,99.06
2022-11-29T11:49:55.881Z,99.10
2022-11-29T11:52:24.821Z,99.33
2022-11-29T11:55:02.148Z,99.31
2022-11-29T11:57:28.891Z,99.18
2022-11-29T11:59:57.859Z,98.89
2022-11-29T12:02:27.227Z,99.43
2022-11-29T12:05:01.411Z,99.04
2022-11-29T12:10:36.384Z,98.17
2022-11-29T12:13:02.960Z,98.62
2022-11-29T12:15:38.404Z,97.93
2022-11-29T12:18:20.246Z,97.59
2022-11-29T12:21:19.250Z,97.12
2022-11-29T12:24:00.450Z,97.62
2022-11-29T12:26:55.850Z,96.78
2022-11-29T12:29:17.493Z,96.51
2022-11-29T12:32:02.811Z,96.18
2022-11-29T12:34:43.252Z,95.29
2022-11-29T12:37:24.903Z,94.80
2022-11-29T12:39:57.440Z,94.88
2022-11-29T12:42:49.668Z,94.88
2022-11-29T12:45:30.634Z,96.02
2022-11-29T12:48:10.159Z,95.94
2022-11-29T12:50:36.753Z,94.80
2022-11-29T12:53:22.556Z,94.60
2022-11-29T12:56:07.159Z,92.88
2022-11-29T12:58:52.229Z,92.94
2022-11-29T13:01:37.128Z,92.36
2022-11-29T13:04:11.596Z,92.93
2022-11-29T13:06:49.438Z,91.48
2022-11-29T13:09:15.786Z,90.38
2022-11-29T13:11:45.103Z,90.11
2022-11-29T13:14:42.560Z,90.16
2022-11-29T13:17:36.254Z,90.15
2022-11-29T13:20:14.195Z,90.80
2022-11-29T13:22:52.739Z,90.71
2022-11-29T13:25:23.665Z,90.63
2022-11-29T13:27:58.585Z,91.85
2022-11-29T13:30:26.148Z,91.21
2022-11-29T13:33:04.546Z,91.79
2022-11-29T13:35:44.284Z,91.42
2022-11-29T13:38:18.539Z,91.09
2022-11-29T13:40:55.015Z,90.82
2022-11-29T13:43:34.465Z,90.85
2022-11-29T13:46:06.980Z,90.70
2022-11-29T13:48:36.991Z,91.47
2022-11-29T13:51:32.655Z,91.00
2022-11-29T13:54:03.394Z,90.31
2022-11-29T13:56:36.065Z,90.40
2022-11-29T13:59:07.579Z,90.55
2022-11-29T14:01:43.643Z,90.67
2022-11-29T14:04:16.228Z,90.79
2022-11-29T14:06:42.758Z,89.95
2022-11-29T14:09:35.285Z,90.02
2022-11-29T14:12:18.183Z,90.07
2022-11-29T14:14:47.825Z,90.00
2022-11-29T14:17:34.042Z,89.80
2022-11-29T14:20:23.586Z,90.08
2022-11-29T14:23:05.221Z,90.25
2022-11-29T14:25:54.995Z,89.58
2022-11-29T14:28:21.544Z,89.72
2022-11-29T14:31:14.068Z,89.34
2022-11-29T14:33:46.516Z,89.11
2022-11-29T14:36:13.300Z,89.26
2022-11-29T14:38:42.437Z,89.58
2022-11-29T14:41:18.058Z,89.45
2022-11-29T14:43:44.532Z,89.14
2022-11-29T14:46:13.974Z,89.47
2022-11-29T14:48:44.336Z,89.04
2022-11-29T14:51:15.768Z,89.80
2022-11-29T14:53:43.322Z,89.46
2022-11-29T14:56:28.518Z,88.77
2022-11-29T14:59:13.752Z,88.75
2022-11-29T15:01:44.946Z,88.67
2022-11-29T15:04:12.633Z,88.71
2022-11-29T15:06:44.375Z,88.67
2022-11-29T15:09:19.253Z,88.73
2022-11-29T15:11:51.934Z,88.46
2022-11-29T15:14:37.499Z,88.79
2022-11-29T15:17:10.038Z,88.97
2022-11-29T15:19:42.581Z,88.62
2022-11-29T15:22:19.757Z,88.30
2022-11-29T15:24:49.715Z,88.51
2022-11-29T15:27:18.145Z,89.03
2022-11-29T15:29:48.464Z,88.79
2022-11-29T15:32:20.762Z,88.56
2022-11-29T15:34:50.492Z,88.36
2022-11-29T15:37:32.006Z,88.49
2022-11-29T15:40:03.692Z,88.68
2022-11-29T15:42:38.258Z,88.19
2022-11-29T15:45:22.913Z,88.04
2022-11-29T15:47:49.583Z,87.98
2022-11-29T15:50:32.104Z,88.42
2022-11-29T15:53:00.746Z,88.65
2022-11-29T15:55:27.635Z,88.19
2022-11-29T15:57:55.743Z,88.23
2022-11-29T16:00:24.304Z,88.18
2022-11-29T16:02:52.238Z,88.68
2022-11-29T16:05:23.402Z,88.71
2022-11-29T16:07:52.384Z,88.91
2022-11-29T16:10:22.872Z,88.71
2022-11-29T16:12:57.808Z,88.35
2022-11-29T16:15:27.056Z,89.29
2022-11-29T16:17:53.467Z,89.08
2022-11-29T16:20:24.510Z,89.34
2022-11-29T16:23:03.911Z,89.04
2022-11-29T16:25:36.035Z,89.25
2022-11-29T16:28:04.212Z,89.05
2022-11-29T16:30:31.405Z,88.75
2022-11-29T16:33:03.386Z,88.33
2022-11-29T16:35:31.619Z,88.42
2022-11-29T16:37:58.003Z,88.88
2022-11-29T16:40:26.020Z,88.64
2022-11-29T16:43:04.453Z,88.19
2022-11-29T16:45:38.078Z,88.07
2022-11-29T16:48:38.098Z,88.42
2022-11-29T16:51:10.688Z,88.17
2022-11-29T16:53:37.954Z,88.71
2022-11-29T16:56:04.951Z,88.35
2022-11-29T16:58:31.710Z,88.53
2022-11-29T17:00:58.141Z,88.34
2022-11-29T17:03:24.533Z,88.43
2022-11-29T17:05:50.912Z,88.30
2022-11-29T17:08:17.358Z,87.94
2022-11-29T17:10:43.790Z,88.02
2022-11-29T17:13:10.745Z,88.23
2022-11-29T17:15:37.158Z,87.90
2022-11-29T17:18:03.645Z,88.34
2022-11-29T17:20:30.033Z,87.75
2022-11-29T17:22:57.270Z,87.97
2022-11-29T17:25:23.647Z,88.50
2022-11-29T17:27:50.303Z,87.56
2022-11-29T17:30:16.778Z,87.89
2022-11-29T17:32:43.165Z,87.93
2022-11-29T17:35:09.677Z,87.70
2022-11-29T17:37:36.044Z,87.99
2022-11-29T17:40:02.537Z,88.40
2022-11-29T17:42:28.943Z,88.39
2022-11-29T17:44:55.305Z,87.89
2022-11-29T17:47:21.711Z,87.89
2022-11-29T17:49:48.464Z,88.28
2022-11-29T17:52:15.058Z,88.21
2022-11-29T17:54:41.518Z,87.97
2022-11-29T17:57:07.956Z,88.30
2022-11-29T17:59:34.412Z,88.04
2022-11-29T18:02:02.171Z,88.09
2022-11-29T18:04:28.658Z,88.13
2022-11-29T18:06:55.075Z,87.89
2022-11-29T18:09:21.462Z,87.50
2022-11-29T18:11:49.900Z,88.10
2022-11-29T18:14:18.324Z,88.13
2022-11-29T18:16:45.614Z,87.66
2022-11-29T18:19:13.693Z,88.21
2022-11-29T18:21:40.169Z,87.85
2022-11-29T18:24:07.164Z,88.00
2022-11-29T18:26:34.456Z,88.10
2022-11-29T18:29:00.974Z,88.49
2022-11-29T18:31:28.550Z,88.45
2022-11-29T18:33:56.066Z,88.00
2022-11-29T18:36:23.956Z,87.99
2022-11-29T18:38:54.730Z,87.98
2022-11-29T18:41:21.916Z,88.40
2022-11-29T18:43:48.918Z,88.46
2022-11-29T18:46:16.601Z,87.94
2022-11-29T18:48:44.035Z,88.24
2022-11-29T18:51:11.785Z,87.76
2022-11-29T18:53:38.917Z,87.50
2022-11-29T18:56:06.843Z,87.64
2022-11-29T18:58:33.446Z,88.03
2022-11-29T19:01:07.258Z,87.94
2022-11-29T19:03:38.061Z,88.15
2022-11-29T19:06:05.477Z,88.07
2022-11-29T19:08:32.484Z,88.05
2022-11-29T19:10:59.039Z,88.06
2022-11-29T19:13:25.426Z,87.98
2022-11-29T19:15:55.572Z,87.79
2022-11-29T19:18:22.280Z,88.60
2022-11-29T19:20:48.922Z,88.32
2022-11-29T19:23:15.910Z,88.27
2022-11-29T19:25:42.460Z,87.69
2022-11-29T19:28:13.924Z,88.00
2022-11-29T19:30:40.789Z,88.08
2022-11-29T19:33:07.270Z,88.34
2022-11-29T19:35:34.693Z,87.92
2022-11-29T19:38:01.261Z,87.79
2022-11-29T19:40:27.809Z,88.19
2022-11-29T19:42:54.271Z,88.31
2022-11-29T19:45:21.873Z,88.36
2022-11-29T19:47:48.268Z,88.18
2022-11-29T19:50:14.696Z,87.96
2022-11-29T19:52:41.073Z,87.88
2022-11-29T19:55:07.586Z,87.90
2022-11-29T19:57:34.074Z,88.09
2022-11-29T20:00:00.525Z,88.17
2022-11-29T20:02:27.862Z,87.85
2022-11-29T20:04:54.333Z,87.72
2022-11-29T20:07:20.728Z,88.01
2022-11-29T20:09:47.563Z,87.68
2022-11-29T20:12:14.132Z,87.81
2022-11-29T20:14:40.563Z,87.86
2022-11-29T20:17:07.120Z,87.78
2022-11-29T20:19:33.585Z,87.84
2022-11-29T20:22:00.616Z,87.74
2022-11-29T20:24:27.002Z,87.75
2022-11-29T20:26:53.515Z,87.88
2022-11-29T20:29:21.514Z,88.06
2022-11-29T20:31:50.901Z,87.96
2022-11-29T20:34:18.203Z,88.00
2022-11-29T20:36:49.479Z,87.95
2022-11-29T20:39:34.034Z,88.21
2022-11-29T20:42:00.507Z,87.84
2022-11-29T20:44:33.096Z,87.84
2022-11-29T20:46:59.645Z,87.87
2022-11-29T20:49:26.177Z,87.69
2022-11-29T20:52:02.031Z,87.39
2022-11-29T20:54:28.564Z,87.65
2022-11-29T20:56:54.954Z,87.55
2022-11-29T20:59:21.548Z,87.50
2022-11-29T21:01:48.057Z,87.38
2022-11-29T21:04:16.750Z,87.63
2022-11-29T21:06:46.651Z,87.26
2022-11-29T21:09:13.082Z,87.30
2022-11-29T21:11:39.652Z,87.31
2022-11-29T21:14:07.630Z,87.26
2022-11-29T21:16:34.166Z,87.42
2022-11-29T21:19:01.863Z,87.06
2022-11-29T21:21:31.148Z,87.28
2022-11-29T21:24:10.892Z,87.26
2022-11-29T21:26:43.086Z,87.32
2022-11-29T21:29:09.477Z,87.09
2022-11-29T21:31:36.274Z,87.30
2022-11-29T21:34:02.709Z,87.13
2022-11-29T21:36:29.310Z,87.21
2022-11-29T21:38:56.053Z,87.21
2022-11-29T21:41:23.545Z,87.36
2022-11-29T21:44:06.146Z,87.23
2022-11-29T21:46:33.411Z,87.41
2022-11-29T21:48:59.817Z,87.54
2022-11-29T21:51:26.289Z,86.90
2022-11-29T21:53:52.672Z,87.41
2022-11-29T21:56:19.065Z,87.16
2022-11-29T21:58:45.513Z,87.40
2022-11-29T22:01:13.984Z,87.29
2022-11-29T22:03:41.317Z,87.42
2022-11-29T22:06:12.124Z,87.25
2022-11-29T22:08:39.572Z,87.48
2022-11-29T22:11:09.807Z,87.50
2022-11-29T22:13:36.990Z,87.25
2022-11-29T22:16:04.627Z,87.15
2022-11-29T22:18:31.117Z,87.45
2022-11-29T22:21:01.080Z,87.50
2022-11-29T22:23:27.525Z,87.23
2022-11-29T22:25:53.902Z,87.20
2022-11-29T22:28:20.285Z,87.20
2022-11-29T22:30:46.691Z,87.47
2022-11-29T22:33:13.551Z,87.31
2022-11-29T22:35:43.609Z,87.42
2022-11-29T22:38:10.133Z,87.22
2022-11-29T22:40:36.501Z,87.19
2022-11-29T22:43:02.888Z,87.08
2022-11-29T22:45:29.286Z,87.07
2022-11-29T22:47:55.684Z,87.16
2022-11-29T22:50:22.082Z,87.01
2022-11-29T22:52:48.512Z,87.17
2022-11-29T22:55:14.955Z,87.11
2022-11-29T22:57:41.381Z,86.93
2022-11-29T23:00:08.180Z,87.00
2022-11-29T23:02:34.642Z,86.95
2022-11-29T23:05:01.141Z,86.92
2022-11-29T23:07:27.580Z,87.27
2022-11-29T23:09:55.943Z,87.04
2022-11-29T23:12:22.371Z,87.04
2022-11-29T23:14:54.517Z,86.98
2022-11-29T23:17:22.599Z,86.60
2022-11-29T23:19:48.982Z,86.57
2022-11-29T23:22:15.365Z,86.58
2022-11-29T23:24:42.655Z,86.34
2022-11-29T23:27:09.138Z,86.23
2022-11-29T23:29:35.511Z,86.51
2022-11-29T23:32:01.924Z,86.39
2022-11-29T23:34:28.329Z,86.27
2022-11-29T23:36:54.753Z,86.14
2022-11-29T23:39:21.135Z,86.18
2022-11-29T23:41:47.522Z,86.33
2022-11-29T23:44:13.883Z,86.21
2022-11-29T23:46:40.284Z,86.20
2022-11-29T23:49:06.670Z,86.13
2022-11-29T23:51:33.205Z,86.00
2022-11-29T23:53:59.691Z,85.92
2022-11-29T23:56:26.104Z,85.99
2022-11-29T23:58:52.500Z,85.95
